LKMB weather

Mladá Boleslav Airport
Mladá Boleslav, Central Bohemian Region, Czechia

Public forecast

Using degrees Celsius for public forecast. Weather courtesy of forecast.io.

Closest aviation weather report (METAR) to Mladá Boleslav Airport

Closest report is Kbely Air Base, 21.5 nm (39.8 km) SW. Retrieved 2019/10/17 11:00 UTC (25 minutes ago):

LKKB 171100Z 16008KT 130V190 CAVOK 18/06 Q1016 NOSIG

Closest aviation forecast (TAF) to Mladá Boleslav Airport

Closest forecast is Kbely Air Base, 21.5 nm (39.8 km) SW. Retrieved 2019/10/17 06:00 UTC (5 hours ago):

TAF LKKB 170500Z 1706/1806 18008KT CAVOK BECMG 1801/1803 5000 BR BKN025 TEMPO 1802/1806 2000 BR BKN008